Time;durP1;ratioP1;P1;durP2;ratioP2;P2;SDS_P1;SDS_P2;PMS_P1;PMS_P2;Temp;Humidity;BMP_temperature;BMP_pressure;BME280_temperature;BME280_humidity;BME280_pressure;Samples;Min_cycle;Max_cycle;Signal;HPM_P1;HPM_P2
2023/12/11 00:01:49;;;;;;;3.70;1.40;;;;;;;6.87;100.00;96928.31;6100814;19;20390;-72
2023/12/11 00:03:50;;;;;;;4.50;1.15;;;;;;;6.92;100.00;96916.13;6102344;19;20007;-72
2023/12/11 00:05:50;;;;;;;7.22;1.25;;;;;;;6.89;100.00;96914.97;6101039;19;20006;-72
2023/12/11 00:07:51;;;;;;;3.92;1.38;;;;;;;6.99;100.00;96929.91;6101298;19;20670;-72
2023/12/11 00:09:51;;;;;;;3.67;1.17;;;;;;;6.91;100.00;96920.06;6101363;19;20011;-72
2023/12/11 00:11:52;;;;;;;4.55;1.30;;;;;;;7.02;100.00;96929.09;6101818;19;20353;-72
2023/12/11 00:13:52;;;;;;;3.38;1.10;;;;;;;7.11;100.00;96923.22;6101500;19;20485;-72
2023/12/11 00:15:53;;;;;;;5.68;1.45;;;;;;;7.03;100.00;96927.91;6101235;19;20310;-72
2023/12/11 00:17:53;;;;;;;3.85;1.20;;;;;;;7.08;100.00;96935.78;6100618;19;20007;-72
2023/12/11 00:19:54;;;;;;;3.10;1.30;;;;;;;7.11;100.00;96915.75;6100778;19;21001;-72
2023/12/11 00:21:54;;;;;;;2.17;0.90;;;;;;;7.17;100.00;96913.41;6100652;19;20077;-71
2023/12/11 00:23:55;;;;;;;3.17;1.30;;;;;;;7.20;100.00;96920.84;6101575;19;20440;-72
2023/12/11 00:25:55;;;;;;;2.38;1.33;;;;;;;7.19;100.00;96922.81;6100379;19;20085;-72
2023/12/11 00:27:55;;;;;;;4.47;1.10;;;;;;;7.23;100.00;96926.38;6101620;19;20010;-72
2023/12/11 00:29:56;;;;;;;3.22;1.40;;;;;;;7.20;100.00;96920.84;6099008;19;20361;-72
2023/12/11 00:31:56;;;;;;;2.05;1.33;;;;;;;7.23;100.00;96920.88;6100565;19;20006;-72
2023/12/11 00:33:56;;;;;;;5.10;1.23;;;;;;;7.19;100.00;96914.56;6100665;19;20006;-72
2023/12/11 00:35:57;;;;;;;4.28;1.67;;;;;;;7.13;100.00;96915.38;6099773;19;20255;-72
2023/12/11 00:37:57;;;;;;;5.63;1.50;;;;;;;7.15;100.00;96902.78;6100787;19;20410;-72
2023/12/11 00:39:57;;;;;;;7.10;1.40;;;;;;;7.12;100.00;96924.81;6100232;19;20014;-72
2023/12/11 00:41:58;;;;;;;4.68;1.50;;;;;;;7.10;100.00;96927.16;6100223;19;20002;-72
2023/12/11 00:43:58;;;;;;;7.75;1.63;;;;;;;7.17;100.00;96921.66;6101287;19;20374;-72
2023/12/11 00:45:59;;;;;;;4.57;1.25;;;;;;;7.16;100.00;96920.88;6099822;19;20086;-72
2023/12/11 00:47:59;;;;;;;2.13;0.98;;;;;;;7.17;100.00;96916.16;6100169;19;20006;-71
2023/12/11 00:49:59;;;;;;;5.32;1.40;;;;;;;7.24;100.00;96918.91;6098879;19;20316;-72
2023/12/11 00:52:00;;;;;;;3.22;1.38;;;;;;;7.17;100.00;96922.44;6100911;19;20513;-72
2023/12/11 00:54:00;;;;;;;3.15;1.42;;;;;;;7.14;100.00;96916.94;6100652;19;20071;-72
2023/12/11 00:56:00;;;;;;;2.17;1.30;;;;;;;7.11;100.00;96917.72;6100209;19;21105;-72
2023/12/11 00:58:01;;;;;;;4.13;1.10;;;;;;;7.06;100.00;96940.13;6098875;19;20007;-72
2023/12/11 01:00:02;;;;;;;4.82;1.17;;;;;;;7.10;100.00;96932.66;6098758;19;20481;-72
2023/12/11 01:02:02;;;;;;;1.55;1.20;;;;;;;7.08;100.00;96913.00;6100488;19;20221;-72
2023/12/11 01:04:03;;;;;;;4.75;1.33;;;;;;;7.10;100.00;96933.44;6100124;19;19995;-72
2023/12/11 01:06:03;;;;;;;7.57;1.40;;;;;;;7.04;100.00;96919.31;6099703;19;20003;-72
2023/12/11 01:08:04;;;;;;;3.72;1.02;;;;;;;7.03;100.00;96931.47;6099711;19;20572;-72
2023/12/11 01:10:05;;;;;;;3.30;1.17;;;;;;;7.07;100.00;96928.72;6098319;19;19990;-72
2023/12/11 01:12:06;;;;;;;4.65;1.50;;;;;;;7.04;100.00;96937.78;6099247;19;19999;-72
2023/12/11 01:14:06;;;;;;;3.15;1.20;;;;;;;7.09;100.00;96926.34;6099762;19;20009;-72
2023/12/11 01:16:07;;;;;;;4.07;1.67;;;;;;;7.09;100.00;96923.59;6098673;19;20006;-72
2023/12/11 01:18:07;;;;;;;5.82;1.55;;;;;;;7.12;100.00;96922.06;6100668;19;20028;-72
2023/12/11 01:20:08;;;;;;;6.82;1.35;;;;;;;7.19;100.00;96917.31;6097948;19;20006;-72
2023/12/11 01:22:09;;;;;;;3.92;1.30;;;;;;;7.22;100.00;96921.25;6099944;19;20011;-72
2023/12/11 01:24:09;;;;;;;3.95;1.38;;;;;;;7.22;100.00;96924.81;6098085;19;20011;-72
2023/12/11 01:26:09;;;;;;;7.05;1.33;;;;;;;7.25;100.00;96915.75;6098808;19;19995;-72
2023/12/11 01:28:10;;;;;;;2.30;1.27;;;;;;;7.23;100.00;96920.88;6099338;19;20017;-72
2023/12/11 01:30:10;;;;;;;5.00;1.30;;;;;;;7.28;100.00;96925.16;6099320;19;20014;-72
2023/12/11 01:32:11;;;;;;;7.53;1.58;;;;;;;7.23;100.00;96918.13;6098949;19;20010;-72
2023/12/11 01:34:11;;;;;;;4.80;1.20;;;;;;;7.20;100.00;96915.34;6099359;19;20010;-72
2023/12/11 01:36:12;;;;;;;5.85;1.30;;;;;;;7.14;100.00;96917.72;6099144;19;20387;-72
2023/12/11 01:38:12;;;;;;;3.08;1.55;;;;;;;7.13;100.00;96909.88;6099560;19;20007;-72
2023/12/11 01:40:12;;;;;;;3.72;1.25;;;;;;;7.08;100.00;96919.28;6098369;19;20002;-72
2023/12/11 01:42:13;;;;;;;2.97;1.30;;;;;;;7.04;100.00;96927.56;6099430;19;20013;-72
2023/12/11 01:44:13;;;;;;;5.15;1.30;;;;;;;7.03;100.00;96934.22;6098907;19;20003;-72
2023/12/11 01:46:14;;;;;;;5.70;1.20;;;;;;;7.12;100.00;96938.56;6100351;19;20497;-72
2023/12/11 01:48:15;;;;;;;4.45;1.38;;;;;;;7.21;100.00;96934.22;6098517;19;20007;-72
2023/12/11 01:50:15;;;;;;;1.90;1.00;;;;;;;7.20;100.00;96940.91;6099486;19;20002;-72
2023/12/11 01:52:16;;;;;;;3.10;1.10;;;;;;;7.20;100.00;96937.34;6098995;19;20006;-72
2023/12/11 01:54:19;;;;;;;4.10;1.23;;;;;;;7.13;100.00;96942.88;6098750;19;20026;-72
2023/12/11 01:56:20;;;;;;;;;;;;;;;7.14;100.00;96947.19;6099733;19;20013;-72
2023/12/11 01:58:22;;;;;;;2.95;1.40;;;;;;;7.06;100.00;96956.63;6099479;19;23157;-72
2023/12/11 02:00:23;;;;;;;2.78;1.00;;;;;;;7.11;100.00;96956.22;6097371;19;20099;-72
2023/12/11 02:02:24;;;;;;;5.28;1.55;;;;;;;7.19;100.00;96955.81;6099980;19;20515;-72
2023/12/11 02:04:24;;;;;;;3.10;1.33;;;;;;;7.14;100.00;96950.72;6098333;19;20087;-72
2023/12/11 02:06:25;;;;;;;3.42;1.35;;;;;;;7.14;100.00;96952.69;6098676;19;20318;-72
2023/12/11 02:08:25;;;;;;;3.15;1.27;;;;;;;7.08;100.00;96957.00;6098620;19;20014;-72
2023/12/11 02:10:25;;;;;;;4.20;1.33;;;;;;;7.00;100.00;96946.00;6099637;19;20011;-72
2023/12/11 02:12:26;;;;;;;4.78;1.30;;;;;;;6.99;100.00;96958.19;6104647;19;20343;-72
2023/12/11 02:14:26;;;;;;;2.55;1.40;;;;;;;6.96;100.00;96953.47;6103241;19;20011;-72
2023/12/11 02:16:26;;;;;;;2.55;1.00;;;;;;;7.00;100.00;96959.75;6104210;19;20029;-72
2023/12/11 02:18:27;;;;;;;4.28;1.30;;;;;;;6.95;100.00;96951.91;6105134;19;20272;-72
2023/12/11 02:20:27;;;;;;;4.25;1.15;;;;;;;6.91;100.00;96955.81;6102507;19;20329;-72
2023/12/11 02:22:28;;;;;;;5.90;1.58;;;;;;;6.89;100.00;96960.91;6103840;19;20014;-72
2023/12/11 02:24:38;;;;;;;2.47;1.45;;;;;;;6.94;100.00;96968.75;6103535;19;20390;-72
2023/12/11 02:26:38;;;;;;;6.40;1.45;;;;;;;7.00;100.00;96959.75;6104645;19;20002;-72
2023/12/11 02:28:39;;;;;;;6.45;1.60;;;;;;;7.07;100.00;96963.69;6103408;19;20009;-72
2023/12/11 02:30:49;;;;;;;8.18;1.85;;;;;;;7.04;100.00;96966.06;6103034;19;20003;-72
2023/12/11 02:32:53;;;;;;;7.43;1.70;;;;;;;7.12;100.00;96961.34;6105135;19;20015;-72
2023/12/11 02:34:53;;;;;;;7.68;1.80;;;;;;;7.08;100.00;96955.03;6104084;19;20037;-72
2023/12/11 02:36:53;;;;;;;9.65;1.83;;;;;;;7.10;100.00;96957.41;6104499;19;20078;-72
2023/12/11 02:38:54;;;;;;;7.50;1.65;;;;;;;7.12;100.00;96952.31;6105643;19;20013;-72
2023/12/11 02:40:54;;;;;;;4.78;1.63;;;;;;;7.12;100.00;96957.81;6101413;19;20010;-72
2023/12/11 02:42:55;;;;;;;4.68;1.17;;;;;;;7.01;100.00;96955.03;6103903;19;20014;-72
2023/12/11 02:44:55;;;;;;;3.47;1.50;;;;;;;6.95;100.00;96954.66;6102791;19;20018;-72
2023/12/11 02:46:55;;;;;;;7.35;1.40;;;;;;;6.95;100.00;96951.09;6104699;19;20462;-72
2023/12/11 02:48:56;;;;;;;5.10;1.30;;;;;;;6.91;100.00;96951.09;6103732;19;20344;-72
2023/12/11 02:50:56;;;;;;;4.05;1.70;;;;;;;6.95;100.00;96957.41;6091842;19;20017;-72
2023/12/11 02:52:59;;;;;;;6.25;1.80;;;;;;;6.96;100.00;96949.94;6103687;19;20356;-72
2023/12/11 02:54:59;;;;;;;3.95;1.80;;;;;;;6.92;100.00;96968.38;6103754;19;20011;-72
2023/12/11 02:56:59;;;;;;;6.53;1.65;;;;;;;6.90;100.00;96960.53;6102841;19;20018;-72
2023/12/11 02:59:00;;;;;;;10.23;1.85;;;;;;;6.87;100.00;96957.75;6102809;19;20030;-72
2023/12/11 03:01:00;;;;;;;4.72;1.30;;;;;;;6.88;100.00;96965.63;6102213;19;20680;-72
2023/12/11 03:03:01;;;;;;;6.25;1.40;;;;;;;6.90;100.00;96957.00;6103961;19;20021;-72
2023/12/11 03:05:01;;;;;;;2.70;1.30;;;;;;;7.04;100.00;96960.56;6102535;19;20013;-72
2023/12/11 03:07:01;;;;;;;6.57;1.17;;;;;;;7.10;100.00;96944.44;6104167;19;20066;-72
2023/12/11 03:09:03;;;;;;;2.78;1.65;;;;;;;7.10;100.00;96933.44;6098147;19;20264;-72
2023/12/11 03:11:03;;;;;;;5.90;2.38;;;;;;;7.08;100.00;96954.25;6103841;19;20339;-72
2023/12/11 03:13:03;;;;;;;4.15;1.50;;;;;;;7.07;100.00;96944.44;6103348;19;20037;-72
2023/12/11 03:15:05;;;;;;;5.85;1.50;;;;;;;7.05;100.00;96944.84;6102804;19;20011;-72
2023/12/11 03:17:06;;;;;;;5.27;1.27;;;;;;;7.07;100.00;96952.69;6100947;19;20007;-72
2023/12/11 03:19:06;;;;;;;7.25;1.27;;;;;;;7.07;100.00;96953.47;6101463;19;20286;-72
2023/12/11 03:21:06;;;;;;;9.02;1.60;;;;;;;7.11;100.00;96948.75;6102048;19;20011;-72
2023/12/11 03:23:07;;;;;;;5.38;1.90;;;;;;;7.16;100.00;96947.59;6103723;19;20029;-72
2023/12/11 03:25:07;;;;;;;6.03;1.73;;;;;;;7.13;100.00;96948.38;6101961;19;20002;-72
2023/12/11 03:27:08;;;;;;;5.50;1.40;;;;;;;7.04;100.00;96948.78;6101305;19;19999;-72
2023/12/11 03:29:08;;;;;;;7.88;1.40;;;;;;;7.01;100.00;96946.78;6102106;19;20316;-72
2023/12/11 03:31:09;;;;;;;3.80;1.30;;;;;;;6.96;100.00;96941.69;6102929;19;20044;-72
2023/12/11 03:33:09;;;;;;;4.78;1.10;;;;;;;6.91;100.00;96937.34;6103378;19;20014;-72
2023/12/11 03:35:09;;;;;;;4.60;2.08;;;;;;;6.96;100.00;96936.97;6102598;19;20017;-72
2023/12/11 03:37:10;;;;;;;4.32;1.95;;;;;;;6.92;100.00;96916.94;6101731;19;20086;-72
2023/12/11 03:39:10;;;;;;;10.27;1.50;;;;;;;6.92;100.00;96925.16;6101648;19;20474;-72
2023/12/11 03:41:11;;;;;;;3.95;1.20;;;;;;;6.96;100.00;96936.19;6102749;19;20013;-72
2023/12/11 03:43:11;;;;;;;2.92;1.27;;;;;;;7.01;100.00;96935.78;6102443;19;20013;-72
2023/12/11 03:45:12;;;;;;;5.63;2.30;;;;;;;7.03;100.00;96941.66;6100917;19;20458;-72
2023/12/11 03:47:12;;;;;;;7.10;2.35;;;;;;;7.02;100.00;96932.63;6103270;19;20010;-72
2023/12/11 03:49:16;;;;;;;3.80;1.30;;;;;;;6.97;100.00;96935.00;6100067;19;20010;-72
2023/12/11 03:51:17;;;;;;;5.53;1.40;;;;;;;6.96;100.00;96925.19;6088406;19;20777;-72
2023/12/11 03:53:17;;;;;;;5.97;1.85;;;;;;;7.07;100.00;96938.94;6088463;19;20010;-72
2023/12/11 03:55:17;;;;;;;2.90;1.30;;;;;;;7.01;100.00;96931.06;6088163;19;20334;-72
2023/12/11 03:57:18;;;;;;;6.55;1.38;;;;;;;7.01;100.00;96925.56;6088210;19;20322;-72
2023/12/11 03:59:18;;;;;;;6.53;1.52;;;;;;;6.92;100.00;96927.13;6086954;19;20026;-72
2023/12/11 04:01:18;;;;;;;6.68;2.00;;;;;;;6.92;100.00;96935.38;6086927;19;20532;-72
2023/12/11 04:03:19;;;;;;;3.20;1.45;;;;;;;6.91;100.00;96929.09;6087708;19;20003;-72
2023/12/11 04:05:19;;;;;;;4.88;1.50;;;;;;;6.84;100.00;96912.59;6083986;19;20469;-72
2023/12/11 04:07:19;;;;;;;2.20;1.20;;;;;;;6.84;100.00;96928.31;6086091;19;20272;-72
2023/12/11 04:09:20;;;;;;;5.38;1.40;;;;;;;6.81;100.00;96915.34;6087569;19;20328;-72
2023/12/11 04:11:20;;;;;;;3.70;1.33;;;;;;;6.86;100.00;96917.69;6085192;19;20391;-72
2023/12/11 04:13:21;;;;;;;8.30;1.50;;;;;;;6.89;100.00;96914.97;6087379;19;20087;-72
2023/12/11 04:15:21;;;;;;;4.07;1.48;;;;;;;6.89;100.00;96914.97;6088411;19;20083;-72
2023/12/11 04:17:21;;;;;;;5.78;1.60;;;;;;;6.91;100.00;96909.84;6087763;19;20009;-72
2023/12/11 04:19:22;;;;;;;4.07;1.60;;;;;;;6.93;100.00;96917.72;6084516;19;20038;-72
2023/12/11 04:21:22;;;;;;;5.50;1.58;;;;;;;6.84;100.00;96912.59;6087977;19;20502;-72
2023/12/11 04:23:23;;;;;;;4.28;1.13;;;;;;;6.91;100.00;96931.06;6086769;19;20391;-72
2023/12/11 04:25:24;;;;;;;4.85;1.30;;;;;;;6.95;100.00;96937.34;6087993;19;20029;-72
2023/12/11 04:27:24;;;;;;;8.55;1.40;;;;;;;6.93;100.00;96928.69;6087065;19;20362;-72
2023/12/11 04:29:24;;;;;;;8.90;1.50;;;;;;;6.91;100.00;96939.31;6086695;19;20250;-72
2023/12/11 04:31:25;;;;;;;4.13;1.25;;;;;;;6.94;100.00;96930.28;6086786;19;20242;-72
2023/12/11 04:33:25;;;;;;;6.35;1.63;;;;;;;7.01;100.00;96939.31;6085189;19;20009;-72
2023/12/11 04:35:26;;;;;;;5.95;1.73;;;;;;;7.06;100.00;96940.91;6087358;19;20006;-72
2023/12/11 04:37:26;;;;;;;8.70;1.30;;;;;;;7.05;100.00;96931.09;6088098;19;20570;-72
2023/12/11 04:39:27;;;;;;;2.13;1.30;;;;;;;7.11;100.00;96931.47;6086073;19;20006;-72
2023/12/11 04:41:27;;;;;;;6.05;1.50;;;;;;;7.06;100.00;96931.88;6087618;19;19999;-72
2023/12/11 04:43:27;;;;;;;7.95;1.58;;;;;;;7.10;100.00;96936.19;6085510;19;20441;-72
2023/12/11 04:45:28;;;;;;;4.05;1.40;;;;;;;7.01;100.00;96931.06;6086541;19;20002;-72
2023/12/11 04:47:28;;;;;;;5.00;1.40;;;;;;;7.01;100.00;96930.28;6086765;19;20237;-72
2023/12/11 04:49:29;;;;;;;2.67;1.23;;;;;;;6.97;100.00;96926.75;6084410;19;20073;-72
2023/12/11 04:51:29;;;;;;;4.60;1.40;;;;;;;6.97;100.00;96915.75;6099683;19;20003;-72
2023/12/11 04:53:29;;;;;;;6.28;1.63;;;;;;;6.92;100.00;96925.16;6099856;19;20736;-72
2023/12/11 04:55:30;;;;;;;4.80;1.27;;;;;;;6.95;100.00;96934.59;6097221;19;20002;-72
2023/12/11 04:57:30;;;;;;;4.90;1.75;;;;;;;6.95;100.00;96951.91;6097126;19;20029;-72
2023/12/11 04:59:30;;;;;;;6.53;1.60;;;;;;;6.99;100.00;96943.66;6093806;19;20013;-72
2023/12/11 05:01:31;;;;;;;6.93;1.60;;;;;;;7.06;100.00;96937.38;6098554;19;20018;-72
2023/12/11 05:03:34;;;;;;;5.00;1.58;;;;;;;7.05;100.00;96939.34;6099080;19;20007;-72
2023/12/11 05:05:35;;;;;;;2.72;1.35;;;;;;;7.13;100.00;96937.38;6099123;19;20021;-72
2023/12/11 05:07:36;;;;;;;6.60;2.10;;;;;;;7.20;100.00;96940.91;6098190;19;20003;-72
2023/12/11 05:09:36;;;;;;;6.50;1.92;;;;;;;7.11;100.00;96937.75;6098468;19;20013;-72
2023/12/11 05:11:37;;;;;;;3.92;1.40;;;;;;;7.10;100.00;96940.91;6099431;19;20483;-72
2023/12/11 05:13:37;;;;;;;9.73;2.90;;;;;;;7.00;100.00;96939.72;6098826;19;20587;-72
2023/12/11 05:15:37;;;;;;;8.30;2.03;;;;;;;6.91;100.00;96942.84;6098877;19;20009;-72
2023/12/11 05:17:38;;;;;;;6.15;1.67;;;;;;;6.87;100.00;96924.75;6099038;19;20074;-72
2023/12/11 05:19:38;;;;;;;5.78;1.40;;;;;;;6.86;100.00;96926.72;6097205;19;20434;-72
2023/12/11 05:21:43;;;;;;;8.00;1.67;;;;;;;6.94;100.00;96924.78;6099234;19;20333;-72
2023/12/11 05:23:43;;;;;;;2.22;1.60;;;;;;;6.99;100.00;96927.94;6098377;19;20502;-72
2023/12/11 05:25:43;;;;;;;5.13;1.45;;;;;;;7.01;100.00;96919.28;6099023;19;20002;-72
2023/12/11 05:27:44;;;;;;;13.93;2.50;;;;;;;7.01;100.00;96919.28;6097958;19;20578;-72
2023/12/11 05:29:44;;;;;;;10.70;2.88;;;;;;;6.96;100.00;96923.22;6099524;19;20311;-72
2023/12/11 05:31:44;;;;;;;6.68;1.58;;;;;;;6.91;100.00;96915.34;6095537;19;20006;-72
2023/12/11 05:33:45;;;;;;;5.78;1.40;;;;;;;6.87;100.00;96925.56;6098362;19;20383;-72
2023/12/11 05:35:45;;;;;;;5.75;1.95;;;;;;;6.86;100.00;96928.69;6098894;19;20018;-72
2023/12/11 05:37:45;;;;;;;6.05;1.40;;;;;;;7.01;100.00;96933.81;6098307;19;20062;-72
2023/12/11 05:39:46;;;;;;;5.47;1.70;;;;;;;7.12;100.00;96925.59;6098574;19;20018;-72
2023/12/11 05:41:46;;;;;;;6.53;1.83;;;;;;;7.15;100.00;96927.53;6098963;19;20365;-72
2023/12/11 05:43:47;;;;;;;3.50;1.23;;;;;;;7.16;100.00;96915.38;6099800;19;20010;-72
2023/12/11 05:45:47;;;;;;;5.85;1.40;;;;;;;7.17;100.00;96907.91;6103940;19;20011;-72
2023/12/11 05:47:48;;;;;;;3.88;1.30;;;;;;;7.23;100.00;96907.13;6103959;19;20498;-72
2023/12/11 05:49:48;;;;;;;3.50;1.30;;;;;;;7.21;100.00;96917.72;6103087;19;20007;-72
2023/12/11 05:51:49;;;;;;;7.40;1.73;;;;;;;7.14;100.00;96917.72;6103752;19;20335;-72
2023/12/11 05:53:49;;;;;;;9.77;1.52;;;;;;;7.10;100.00;96925.19;6102317;19;20002;-72
2023/12/11 05:55:50;;;;;;;6.88;1.95;;;;;;;7.09;100.00;96929.09;6103996;19;20212;-72
2023/12/11 05:57:50;;;;;;;3.42;1.42;;;;;;;7.08;100.00;96918.50;6103143;19;20010;-72
2023/12/11 05:59:51;;;;;;;1.67;1.15;;;;;;;7.10;100.00;96927.16;6101799;19;20015;-72
2023/12/11 06:01:51;;;;;;;5.45;1.50;;;;;;;7.06;100.00;96921.66;6100259;19;20024;-72
2023/12/11 06:03:51;;;;;;;4.88;1.92;;;;;;;7.10;100.00;96916.94;6101039;19;20002;-72
2023/12/11 06:05:57;;;;;;;6.97;1.85;;;;;;;7.08;100.00;96926.75;6100829;19;20451;-72
2023/12/11 06:07:58;;;;;;;4.57;1.50;;;;;;;7.10;100.00;96911.44;6103590;19;20002;-72
2023/12/11 06:09:58;;;;;;;7.68;1.42;;;;;;;7.15;100.00;96924.00;6101894;19;20398;-72
2023/12/11 06:11:58;;;;;;;7.65;1.85;;;;;;;7.10;100.00;96910.66;6102141;19;20112;-72
2023/12/11 06:13:59;;;;;;;6.50;1.88;;;;;;;7.16;100.00;96914.56;6103375;19;20026;-72
2023/12/11 06:15:59;;;;;;;3.90;1.38;;;;;;;7.18;100.00;96913.00;6103203;19;20014;-72
2023/12/11 06:18:00;;;;;;;7.07;1.60;;;;;;;7.18;100.00;96910.25;6103979;19;20219;-72
2023/12/11 06:20:00;;;;;;;8.13;1.63;;;;;;;7.16;100.00;96909.84;6102466;19;20418;-72
2023/12/11 06:22:01;;;;;;;8.70;2.38;;;;;;;7.10;100.00;96916.94;6103158;19;20495;-72
2023/12/11 06:24:01;;;;;;;6.43;1.85;;;;;;;7.15;100.00;96902.78;6103099;19;20049;-72
2023/12/11 06:26:01;;;;;;;6.45;1.70;;;;;;;7.15;100.00;96905.53;6102299;19;20012;-72
2023/12/11 06:28:02;;;;;;;3.42;2.10;;;;;;;7.17;100.00;96911.44;6096753;19;20002;-72
2023/12/11 06:30:05;;;;;;;4.63;1.75;;;;;;;7.12;100.00;96906.34;6097313;19;20010;-72
2023/12/11 06:32:06;;;;;;;3.95;1.50;;;;;;;7.22;100.00;96891.78;6103163;19;20007;-72
2023/12/11 06:34:07;;;;;;;3.67;1.50;;;;;;;7.24;100.00;96897.69;6102490;19;20002;-72
2023/12/11 06:36:07;;;;;;;6.55;1.60;;;;;;;7.17;100.00;96892.19;6102500;19;21040;-72
2023/12/11 06:38:08;;;;;;;7.35;1.35;;;;;;;7.12;100.00;96889.84;6101742;19;20020;-72
2023/12/11 06:40:09;;;;;;;3.83;1.40;;;;;;;7.07;100.00;96875.69;6101983;19;20338;-72
2023/12/11 06:42:09;;;;;;;12.10;2.38;;;;;;;7.04;100.00;96872.56;6102110;19;20486;-72
2023/12/11 06:44:09;;;;;;;5.13;1.70;;;;;;;7.05;100.00;96873.34;6099427;19;20439;-72
2023/12/11 06:46:11;;;;;;;5.65;1.63;;;;;;;7.17;100.00;96867.41;6098671;19;20296;-72
2023/12/11 06:48:12;;;;;;;7.57;1.73;;;;;;;7.21;100.00;96865.47;6100743;19;19999;-72
2023/12/11 06:50:12;;;;;;;7.13;1.40;;;;;;;7.19;100.00;96867.03;6096318;19;20308;-72
2023/12/11 06:52:13;;;;;;;4.45;1.52;;;;;;;7.18;100.00;96866.25;6100885;19;20428;-72
2023/12/11 06:54:14;;;;;;;4.97;1.33;;;;;;;7.13;100.00;96852.91;6102736;19;20071;-72
2023/12/11 06:56:21;;;;;;;6.53;1.67;;;;;;;7.13;100.00;96874.13;6096977;19;20037;-72
2023/12/11 06:58:21;;;;;;;8.70;1.70;;;;;;;7.11;100.00;96871.75;6101460;19;20036;-72
2023/12/11 07:00:22;;;;;;;4.55;1.88;;;;;;;7.09;100.00;96849.34;6100720;19;20006;-72
2023/12/11 07:02:22;;;;;;;7.38;1.90;;;;;;;7.13;100.00;96854.88;6098497;19;20040;-72
2023/12/11 07:04:23;;;;;;;10.52;2.35;;;;;;;7.07;100.00;96854.47;6102608;19;20037;-72
2023/12/11 07:06:23;;;;;;;4.82;1.60;;;;;;;7.11;100.00;96851.69;6103397;19;20094;-72
2023/12/11 07:08:24;;;;;;;4.93;1.60;;;;;;;7.18;100.00;96841.47;6103340;19;20223;-72
2023/12/11 07:10:24;;;;;;;7.05;2.60;;;;;;;7.13;100.00;96841.91;6100481;19;20517;-72
2023/12/11 07:12:25;;;;;;;5.05;1.40;;;;;;;7.09;100.00;96837.56;6103470;19;20006;-72
2023/12/11 07:14:25;;;;;;;8.88;1.33;;;;;;;7.06;100.00;96830.91;6102912;19;20014;-72
2023/12/11 07:16:26;;;;;;;3.35;1.20;;;;;;;7.08;100.00;96819.50;6101934;19;20807;-72
2023/12/11 07:18:26;;;;;;;5.13;1.60;;;;;;;7.07;100.00;96843.47;6102126;19;20047;-72
2023/12/11 07:20:27;;;;;;;5.82;1.45;;;;;;;7.09;100.00;96837.56;6102041;19;20010;-72
2023/12/11 07:22:27;;;;;;;4.28;1.75;;;;;;;7.16;100.00;96849.34;6098912;19;20003;-72
2023/12/11 07:24:28;;;;;;;7.45;2.03;;;;;;;7.14;100.00;96831.69;6102936;19;20023;-72
2023/12/11 07:26:28;;;;;;;6.55;1.80;;;;;;;7.16;100.00;96840.31;6103464;19;20007;-72
2023/12/11 07:28:28;;;;;;;5.63;1.90;;;;;;;7.18;100.00;96830.47;6103641;19;20062;-72
2023/12/11 07:30:29;;;;;;;5.28;1.73;;;;;;;7.17;100.00;96828.91;6100801;19;20006;-72
2023/12/11 07:32:29;;;;;;;7.05;1.50;;;;;;;7.20;100.00;96838.34;6097699;19;20003;-72
2023/12/11 07:34:30;;;;;;;5.78;1.42;;;;;;;7.24;100.00;96837.16;6092821;19;20458;-72
2023/12/11 07:36:30;;;;;;;6.30;1.55;;;;;;;7.35;100.00;96828.09;6100091;19;20034;-72
2023/12/11 07:38:31;;;;;;;7.72;1.60;;;;;;;7.39;100.00;96828.88;6099279;19;20003;-72
2023/12/11 07:40:31;;;;;;;5.05;1.27;;;;;;;7.43;100.00;96833.19;6097952;19;20471;-72
2023/12/11 07:42:32;;;;;;;7.82;1.35;;;;;;;7.49;100.00;96822.56;6100067;19;20011;-72
2023/12/11 07:44:32;;;;;;;3.90;1.50;;;;;;;7.53;100.00;96832.38;6100245;19;20010;-72
2023/12/11 07:46:32;;;;;;;4.40;1.20;;;;;;;7.47;100.00;96825.72;6099910;19;20006;-72
2023/12/11 07:48:33;;;;;;;17.52;8.27;;;;;;;7.53;100.00;96831.56;6100750;19;20529;-72
2023/12/11 07:50:33;;;;;;;11.20;3.40;;;;;;;7.55;100.00;96819.00;6088418;19;20006;-72
2023/12/11 07:52:33;;;;;;;9.57;2.53;;;;;;;7.56;100.00;96828.03;6100399;19;20010;-72
2023/12/11 07:54:34;;;;;;;4.90;1.60;;;;;;;7.58;100.00;96820.16;6102267;19;20701;-72
2023/12/11 07:56:37;;;;;;;5.70;1.35;;;;;;;7.53;100.00;96821.38;6102199;19;20006;-72
2023/12/11 07:58:37;;;;;;;5.07;2.45;;;;;;;7.60;100.00;96817.78;6095700;19;20294;-72
2023/12/11 08:00:38;;;;;;;7.78;2.47;;;;;;;7.63;100.00;96814.25;6100668;19;20041;-72
2023/12/11 08:02:38;;;;;;;3.67;1.25;;;;;;;7.69;100.00;96820.13;6102212;19;20026;-72
2023/12/11 08:04:39;;;;;;;5.63;1.77;;;;;;;7.70;100.00;96824.47;6101250;19;20376;-72
2023/12/11 08:06:42;;;;;;;3.10;1.33;;;;;;;7.70;100.00;96841.00;6102527;19;20013;-72
2023/12/11 08:08:45;;;;;;;4.28;1.15;;;;;;;7.81;100.00;96822.44;6097236;19;20002;-72
2023/12/11 08:10:46;;;;;;;4.28;1.45;;;;;;;7.86;100.00;96800.00;6100999;19;20718;-72
2023/12/11 08:12:53;;;;;;;6.13;1.65;;;;;;;7.84;100.00;96802.38;6102003;19;20002;-72
2023/12/11 08:14:53;;;;;;;4.07;1.63;;;;;;;7.85;100.00;96790.94;6099847;19;20006;-72
2023/12/11 08:16:54;;;;;;;8.57;1.65;;;;;;;7.86;100.00;96800.81;6101624;19;20803;-72
2023/12/11 08:18:54;;;;;;;8.85;2.17;;;;;;;7.86;100.00;96791.72;6100750;19;20018;-72
2023/12/11 08:20:55;;;;;;;4.22;1.70;;;;;;;8.00;100.00;96810.94;6100412;19;20022;-72
2023/12/11 08:22:56;;;;;;;7.68;1.83;;;;;;;8.09;100.00;96807.75;6101554;19;20033;-72
2023/12/11 08:24:56;;;;;;;4.07;1.63;;;;;;;8.07;100.00;96791.63;6100349;19;20007;-72
2023/12/11 08:26:56;;;;;;;2.42;1.40;;;;;;;8.03;100.00;96799.16;6101455;19;20748;-72
2023/12/11 08:28:57;;;;;;;7.75;1.60;;;;;;;8.05;100.00;96799.53;6100589;19;20293;-72
2023/12/11 08:30:57;;;;;;;4.22;1.50;;;;;;;8.11;100.00;96797.91;6100181;19;20555;-72
2023/12/11 08:32:58;;;;;;;3.58;1.33;;;;;;;8.14;100.00;96799.84;6100998;19;20028;-72
2023/12/11 08:35:03;;;;;;;8.50;1.80;;;;;;;8.16;100.00;96788.44;6101121;19;20036;-72
2023/12/11 08:37:03;;;;;;;11.73;2.28;;;;;;;8.17;100.00;96796.28;6098950;19;20303;-72
2023/12/11 08:39:04;;;;;;;4.78;2.50;;;;;;;8.21;100.00;96796.28;6100011;19;20117;-72
2023/12/11 08:41:04;;;;;;;3.33;1.77;;;;;;;8.21;100.00;96795.50;6101301;19;20017;-71
2023/12/11 08:43:04;;;;;;;6.72;1.88;;;;;;;8.21;100.00;96795.50;6100389;19;20006;-72
2023/12/11 08:45:05;;;;;;;5.03;1.52;;;;;;;8.34;100.00;96791.84;6099184;19;20011;-71
2023/12/11 08:47:05;;;;;;;5.57;1.42;;;;;;;8.47;100.00;96786.69;6100143;19;20018;-72
2023/12/11 08:49:06;;;;;;;4.30;1.85;;;;;;;8.52;100.00;96789.00;6100134;19;20010;-72
2023/12/11 08:51:06;;;;;;;8.52;1.73;;;;;;;8.53;100.00;96801.59;6085192;19;20330;-72
2023/12/11 08:53:07;;;;;;;6.25;1.40;;;;;;;8.60;100.00;96803.50;6086929;19;20070;-72
2023/12/11 08:55:08;;;;;;;8.00;4.25;;;;;;;8.72;100.00;96795.53;6086343;19;20006;-72
2023/12/11 08:57:09;;;;;;;4.47;2.22;;;;;;;8.68;100.00;96813.28;6085346;19;20077;-72
2023/12/11 08:59:09;;;;;;;6.60;3.45;;;;;;;8.72;100.00;96809.31;6085519;19;19995;-72
2023/12/11 09:01:10;;;;;;;4.63;2.15;;;;;;;8.77;100.00;96801.78;6085608;19;20029;-72
2023/12/11 09:03:10;;;;;;;6.53;1.70;;;;;;;8.77;100.00;96802.59;6086230;19;20319;-72
2023/12/11 09:05:11;;;;;;;6.50;2.10;;;;;;;8.72;100.00;96803.03;6085918;19;20419;-72
2023/12/11 09:07:11;;;;;;;5.18;2.53;;;;;;;8.76;100.00;96816.78;6085867;19;19995;-72
2023/12/11 09:09:13;;;;;;;4.35;1.85;;;;;;;8.79;100.00;96816.75;6084304;19;19999;-72
2023/12/11 09:11:14;;;;;;;5.88;2.03;;;;;;;8.71;100.00;96823.53;6086115;19;20038;-72
2023/12/11 09:13:14;;;;;;;7.85;1.88;;;;;;;8.73;100.00;96812.88;6085579;19;20386;-72
2023/12/11 09:15:14;;;;;;;5.10;1.63;;;;;;;8.68;100.00;96811.31;6085144;19;20005;-72
2023/12/11 09:17:15;;;;;;;3.03;1.70;;;;;;;8.65;100.00;96825.13;6086198;19;19998;-72
2023/12/11 09:19:15;;;;;;;3.85;2.00;;;;;;;8.69;100.00;96831.44;6086023;19;19999;-72
2023/12/11 09:21:16;;;;;;;5.10;3.00;;;;;;;8.66;100.00;96841.28;6090869;19;20019;-72
2023/12/11 09:23:16;;;;;;;4.20;2.60;;;;;;;8.68;100.00;96830.63;6091238;19;20379;-72
2023/12/11 09:25:16;;;;;;;7.90;2.25;;;;;;;8.66;100.00;96844.03;6090016;19;20002;-72
2023/12/11 09:27:17;;;;;;;4.10;2.42;;;;;;;8.68;100.00;96825.09;6090317;19;20503;-72
2023/12/11 09:29:18;;;;;;;6.20;2.95;;;;;;;8.54;100.00;96829.97;6090091;19;20030;-72